createdAt,value
2022-10-05T00:00:25.529Z,4.90
2022-10-05T00:02:55.654Z,4.10
2022-10-05T00:05:35.194Z,4.75
2022-10-05T00:08:16.365Z,4.22
2022-10-05T00:10:47.518Z,4.60
2022-10-05T00:13:22.857Z,4.47
2022-10-05T00:15:53.860Z,4.93
2022-10-05T00:18:23.072Z,3.83
2022-10-05T00:20:51.021Z,5.03
2022-10-05T00:23:37.494Z,5.07
2022-10-05T00:26:22.782Z,4.65
2022-10-05T00:28:51.623Z,4.30
2022-10-05T00:31:33.559Z,4.77
2022-10-05T00:34:01.684Z,4.20
2022-10-05T00:36:29.758Z,4.72
2022-10-05T00:38:57.628Z,5.72
2022-10-05T00:41:31.248Z,4.68
2022-10-05T00:44:42.005Z,4.40
2022-10-05T00:47:28.110Z,4.30
2022-10-05T00:50:10.706Z,5.40
2022-10-05T00:53:07.010Z,5.00
2022-10-05T00:56:03.010Z,4.85
2022-10-05T00:58:49.523Z,4.10
2022-10-05T01:01:35.264Z,4.97
2022-10-05T01:04:09.148Z,4.72
2022-10-05T01:06:43.107Z,4.68
2022-10-05T01:09:32.953Z,4.55
2022-10-05T01:12:09.697Z,4.57
2022-10-05T01:14:55.160Z,5.50
2022-10-05T01:17:34.556Z,4.82
2022-10-05T01:20:15.442Z,5.13
2022-10-05T01:23:23.219Z,4.75
2022-10-05T01:26:54.612Z,4.85
2022-10-05T01:29:25.355Z,4.95
2022-10-05T01:32:14.367Z,5.55
2022-10-05T01:34:48.774Z,4.85
2022-10-05T01:37:41.595Z,5.30
2022-10-05T01:40:32.112Z,4.72
2022-10-05T01:43:22.625Z,5.43
2022-10-05T01:46:15.527Z,4.80
2022-10-05T01:49:18.449Z,5.28
2022-10-05T01:52:05.237Z,4.75
2022-10-05T01:54:45.277Z,5.10
2022-10-05T01:57:37.533Z,4.68
2022-10-05T02:00:12.960Z,5.40
2022-10-05T02:02:47.246Z,4.97
2022-10-05T02:05:20.415Z,4.95
2022-10-05T02:08:08.816Z,5.03
2022-10-05T02:10:56.706Z,6.28
2022-10-05T02:13:42.273Z,5.47
2022-10-05T02:16:22.550Z,4.90
2022-10-05T02:18:55.533Z,4.85
2022-10-05T02:21:25.839Z,4.88
2022-10-05T02:23:59.929Z,5.13
2022-10-05T02:26:28.512Z,4.43
2022-10-05T02:29:03.755Z,5.15
2022-10-05T02:32:03.928Z,4.78
2022-10-05T02:34:41.451Z,4.88
2022-10-05T02:37:12.848Z,5.00
2022-10-05T02:39:46.686Z,4.80
2022-10-05T02:42:29.698Z,4.85
2022-10-05T02:45:19.313Z,4.50
2022-10-05T02:48:00.573Z,5.03
2022-10-05T02:50:47.918Z,4.90
2022-10-05T02:53:24.804Z,5.18
2022-10-05T02:56:09.779Z,5.10
2022-10-05T02:59:05.683Z,4.95
2022-10-05T03:01:51.207Z,5.47
2022-10-05T03:04:27.864Z,6.00
2022-10-05T03:07:26.554Z,5.10
2022-10-05T03:10:23.714Z,5.45
2022-10-05T03:13:04.051Z,5.22
2022-10-05T03:15:41.970Z,5.45
2022-10-05T03:18:30.866Z,5.28
2022-10-05T03:21:16.024Z,5.45
2022-10-05T03:23:59.537Z,6.00
2022-10-05T03:26:51.641Z,5.70
2022-10-05T03:29:49.076Z,5.30
2022-10-05T03:32:39.826Z,5.63
2022-10-05T03:35:16.846Z,5.65
2022-10-05T03:38:12.754Z,5.82
2022-10-05T03:41:05.977Z,5.78
2022-10-05T03:43:51.444Z,5.75
2022-10-05T03:49:40.148Z,6.03
2022-10-05T03:52:14.823Z,6.32
2022-10-05T03:54:49.802Z,5.57
2022-10-05T03:57:37.546Z,5.35
2022-10-05T04:00:28.392Z,6.10
2022-10-05T04:03:11.439Z,6.10
2022-10-05T04:05:44.580Z,6.28
2022-10-05T04:08:26.025Z,5.95
2022-10-05T04:10:58.133Z,6.45
2022-10-05T04:13:51.326Z,6.00
2022-10-05T04:16:22.309Z,6.10
2022-10-05T04:19:17.598Z,6.40
2022-10-05T04:22:08.660Z,6.10
2022-10-05T04:25:04.225Z,6.85
2022-10-05T04:27:40.498Z,5.72
2022-10-05T04:30:13.384Z,6.53
2022-10-05T04:32:50.534Z,6.75
2022-10-05T04:35:50.720Z,7.82
2022-10-05T04:38:45.517Z,8.15
2022-10-05T04:41:31.837Z,7.13
2022-10-05T04:44:22.469Z,7.15
2022-10-05T04:47:22.570Z,7.50
2022-10-05T04:50:18.645Z,7.28
2022-10-05T04:52:59.109Z,7.07
2022-10-05T04:55:39.310Z,7.32
2022-10-05T04:58:42.241Z,7.65
2022-10-05T05:01:19.426Z,7.70
2022-10-05T05:04:02.746Z,7.68
2022-10-05T05:06:43.746Z,8.07
2022-10-05T05:09:32.054Z,8.77
2022-10-05T05:12:05.726Z,7.43
2022-10-05T05:14:36.781Z,7.80
2022-10-05T05:17:46.218Z,8.30
2022-10-05T05:20:38.827Z,8.40
2022-10-05T05:23:11.606Z,8.68
2022-10-05T05:26:11.648Z,8.60
2022-10-05T05:28:46.027Z,8.98
2022-10-05T05:31:24.824Z,9.65
2022-10-05T05:34:11.157Z,9.40
2022-10-05T05:37:13.038Z,9.98
2022-10-05T05:40:18.315Z,9.23
2022-10-05T05:43:00.193Z,9.02
2022-10-05T05:45:51.939Z,8.35
2022-10-05T05:48:36.235Z,8.45
2022-10-05T05:51:41.108Z,8.75
2022-10-05T05:54:30.709Z,7.70
2022-10-05T05:57:10.586Z,7.05
2022-10-05T06:02:18.143Z,6.13
2022-10-05T06:05:10.663Z,6.10
2022-10-05T06:07:40.429Z,6.72
2022-10-05T06:13:04.810Z,6.10
2022-10-05T06:15:41.812Z,6.53
2022-10-05T06:18:16.284Z,6.43
2022-10-05T06:20:53.071Z,5.63
2022-10-05T06:23:47.104Z,6.20
2022-10-05T06:26:18.496Z,6.57
2022-10-05T06:28:54.067Z,6.22
2022-10-05T06:31:58.755Z,6.40
2022-10-05T06:34:52.383Z,5.78
2022-10-05T06:37:32.420Z,5.97
2022-10-05T06:40:12.462Z,6.38
2022-10-05T06:43:16.545Z,5.95
2022-10-05T06:45:47.656Z,6.65
2022-10-05T06:48:29.456Z,6.35
2022-10-05T06:51:16.532Z,6.65
2022-10-05T06:53:59.349Z,6.65
2022-10-05T06:56:45.251Z,6.32
2022-10-05T06:59:25.603Z,7.10
2022-10-05T07:01:59.117Z,6.60
2022-10-05T07:04:48.217Z,6.43
2022-10-05T07:07:38.549Z,6.20
2022-10-05T07:10:44.646Z,6.65
2022-10-05T07:13:30.806Z,6.68
2022-10-05T07:16:33.613Z,7.05
2022-10-05T07:19:43.103Z,6.78
2022-10-05T07:22:34.233Z,6.38
2022-10-05T07:25:18.724Z,6.30
2022-10-05T07:27:57.622Z,6.28
2022-10-05T07:30:25.742Z,6.20
2022-10-05T07:33:07.092Z,5.78
2022-10-05T07:36:20.911Z,6.20
2022-10-05T07:39:10.980Z,5.60
2022-10-05T07:42:19.784Z,6.13
2022-10-05T07:48:17.198Z,5.45
2022-10-05T07:51:21.676Z,6.03
2022-10-05T07:54:13.541Z,5.32
2022-10-05T07:56:51.141Z,5.40
2022-10-05T07:59:59.565Z,6.03
2022-10-05T08:02:46.099Z,5.40
2022-10-05T08:05:35.765Z,5.18
2022-10-05T09:44:22.231Z,6.10
2022-10-05T09:47:31.441Z,5.90
2022-10-05T09:50:25.627Z,5.85
2022-10-05T09:53:23.936Z,5.65
2022-10-05T09:56:10.417Z,5.40
2022-10-05T09:58:56.425Z,5.93
2022-10-05T10:01:38.320Z,6.00
2022-10-05T10:04:19.717Z,6.03
2022-10-05T10:07:22.388Z,4.93
2022-10-05T10:10:54.721Z,5.35
2022-10-05T10:13:46.439Z,5.80
2022-10-05T10:16:46.793Z,5.63
2022-10-05T10:19:58.057Z,5.30
2022-10-05T10:22:46.138Z,5.93
2022-10-05T10:25:32.711Z,5.22
2022-10-05T10:28:39.040Z,5.18
2022-10-05T10:31:39.553Z,5.13
2022-10-05T10:34:25.735Z,5.95
2022-10-05T10:40:23.935Z,4.75
2022-10-05T10:43:20.276Z,4.45
2022-10-05T10:45:57.382Z,4.72
2022-10-05T10:48:31.528Z,4.95
2022-10-05T10:51:20.690Z,4.18
2022-10-05T10:54:15.095Z,4.55
2022-10-05T10:56:59.429Z,4.60
2022-10-05T11:00:08.395Z,4.72
2022-10-05T11:02:50.878Z,4.70
2022-10-05T11:05:47.931Z,3.63
2022-10-05T11:08:47.652Z,4.07
2022-10-05T11:12:11.351Z,3.83
2022-10-05T11:15:30.062Z,3.60
2022-10-05T11:18:07.209Z,3.90
2022-10-05T11:20:53.474Z,4.80
2022-10-05T11:23:47.255Z,4.15
2022-10-05T11:26:18.196Z,3.85
2022-10-05T11:29:02.737Z,4.03
2022-10-05T11:31:37.649Z,4.30
2022-10-05T11:34:12.211Z,4.50
2022-10-05T11:36:52.165Z,6.22
2022-10-05T11:40:01.375Z,6.25
2022-10-05T11:42:49.574Z,7.35
2022-10-05T11:45:27.355Z,6.07
2022-10-05T11:48:11.748Z,5.57
2022-10-05T11:51:17.082Z,6.03
2022-10-05T11:54:18.160Z,4.38
2022-10-05T11:56:53.904Z,4.35
2022-10-05T11:59:50.052Z,4.10
2022-10-05T12:02:44.737Z,4.97
2022-10-05T12:05:44.850Z,4.50
2022-10-05T12:08:35.453Z,3.60
2022-10-05T12:11:13.815Z,3.75
2022-10-05T12:13:56.796Z,2.97
2022-10-05T12:17:08.166Z,3.20
2022-10-05T12:19:42.810Z,3.55
2022-10-05T12:22:28.151Z,2.60
2022-10-05T12:25:35.631Z,2.08
2022-10-05T12:28:14.978Z,2.22
2022-10-05T12:31:28.224Z,2.00
2022-10-05T12:34:14.335Z,2.10
2022-10-05T12:37:06.257Z,2.40
2022-10-05T12:39:48.870Z,2.10
2022-10-05T12:42:44.504Z,2.20
2022-10-05T12:45:20.891Z,1.88
2022-10-05T12:47:55.895Z,2.28
2022-10-05T12:50:32.831Z,2.35
2022-10-05T12:53:26.596Z,1.70
2022-10-05T12:56:03.463Z,1.70
2022-10-05T12:59:02.070Z,2.05
2022-10-05T13:01:34.670Z,1.45
2022-10-05T13:04:22.143Z,1.95
2022-10-05T13:07:19.154Z,1.90
2022-10-05T13:10:30.661Z,1.80
2022-10-05T13:13:04.517Z,2.25
2022-10-05T13:15:34.631Z,1.75
2022-10-05T13:20:55.884Z,1.63
2022-10-05T13:23:35.816Z,1.60
2022-10-05T13:26:13.531Z,1.67
2022-10-05T13:29:04.384Z,1.50
2022-10-05T13:31:32.420Z,1.50
2022-10-05T13:34:20.564Z,1.40
2022-10-05T13:36:48.606Z,2.00
2022-10-05T13:39:35.345Z,2.17
2022-10-05T13:42:36.007Z,1.63
2022-10-05T13:45:24.749Z,1.85
2022-10-05T13:48:02.877Z,2.00
2022-10-05T13:50:39.101Z,2.10
2022-10-05T13:53:29.759Z,1.70
2022-10-05T13:56:11.535Z,2.08
2022-10-05T13:58:55.561Z,2.20
2022-10-05T14:01:33.342Z,2.97
2022-10-05T14:04:43.157Z,2.63
2022-10-05T14:09:52.735Z,2.30
2022-10-05T14:12:23.315Z,2.40
2022-10-05T14:14:55.629Z,3.05
2022-10-05T14:17:45.427Z,3.58
2022-10-05T14:20:59.215Z,3.40
2022-10-05T14:23:27.973Z,2.42
2022-10-05T14:25:56.769Z,3.17
2022-10-05T14:28:36.792Z,3.50
2022-10-05T14:31:27.613Z,5.82
2022-10-05T14:33:57.591Z,4.70
2022-10-05T14:36:44.534Z,5.88
2022-10-05T14:39:15.482Z,4.65
2022-10-05T14:41:49.759Z,5.30
2022-10-05T14:44:36.804Z,4.18
2022-10-05T14:47:25.139Z,4.88
2022-10-05T14:50:14.871Z,9.20
2022-10-05T14:55:31.429Z,9.23
2022-10-05T14:58:25.083Z,9.43
2022-10-05T15:01:04.660Z,9.23
2022-10-05T15:06:02.794Z,11.93
2022-10-05T15:08:42.981Z,10.27
2022-10-05T15:11:43.280Z,12.60
2022-10-05T15:14:43.540Z,9.57
2022-10-05T15:17:26.865Z,12.13
2022-10-05T15:20:19.606Z,16.38
2022-10-05T15:23:00.082Z,27.40
2022-10-05T15:25:53.385Z,24.50
2022-10-05T15:28:40.417Z,25.00
2022-10-05T15:31:28.344Z,26.25
2022-10-05T15:34:27.146Z,16.75
2022-10-05T15:37:26.575Z,17.83
2022-10-05T15:40:03.664Z,14.73
2022-10-05T15:42:44.573Z,15.18
2022-10-05T15:45:33.268Z,12.90
2022-10-05T15:48:42.129Z,12.80
2022-10-05T15:51:17.431Z,19.67
2022-10-05T15:54:15.189Z,16.27
2022-10-05T15:57:09.830Z,14.52
2022-10-05T16:00:00.150Z,11.95
2022-10-05T16:02:42.264Z,10.45
2022-10-05T16:05:58.997Z,7.65
2022-10-05T16:08:56.929Z,11.40
2022-10-05T16:12:01.260Z,12.30
2022-10-05T16:14:43.417Z,13.93
2022-10-05T16:17:34.505Z,16.30
2022-10-05T16:20:29.580Z,17.55
2022-10-05T16:23:19.386Z,12.40
2022-10-05T16:25:59.634Z,15.02
2022-10-05T16:29:15.606Z,14.82
2022-10-05T16:32:03.360Z,13.50
2022-10-05T16:34:50.670Z,12.55
2022-10-05T16:37:57.179Z,15.10
2022-10-05T16:40:30.042Z,15.35
2022-10-05T16:43:04.215Z,13.85
2022-10-05T16:46:10.157Z,11.40
2022-10-05T16:51:57.901Z,9.23
2022-10-05T16:54:32.885Z,9.13
2022-10-05T16:57:06.529Z,8.52
2022-10-05T16:59:56.706Z,6.75
2022-10-05T17:02:51.754Z,6.85
2022-10-05T17:05:29.610Z,9.38
2022-10-05T17:08:27.070Z,8.60
2022-10-05T17:11:26.073Z,11.93
2022-10-05T17:14:07.980Z,35.47
2022-10-05T17:17:01.816Z,33.40
2022-10-05T17:19:40.094Z,32.13
2022-10-05T17:22:23.316Z,29.83
2022-10-05T17:25:27.414Z,35.58
2022-10-05T17:28:17.278Z,28.60
2022-10-05T17:31:03.899Z,25.52
2022-10-05T17:33:33.692Z,15.73
2022-10-05T17:36:05.349Z,12.65
2022-10-05T17:38:39.003Z,13.57
2022-10-05T17:41:13.135Z,10.10
2022-10-05T17:43:41.960Z,12.50
2022-10-05T17:46:13.230Z,11.02
2022-10-05T17:48:50.322Z,6.80
2022-10-05T17:51:49.700Z,6.30
2022-10-05T17:54:42.048Z,5.07
2022-10-05T17:57:11.547Z,4.32
2022-10-05T17:59:56.390Z,4.65
2022-10-05T18:02:36.696Z,5.25
2022-10-05T18:05:05.254Z,4.40
2022-10-05T18:07:38.374Z,4.57
2022-10-05T18:10:12.381Z,4.82
2022-10-05T18:12:48.587Z,4.85
2022-10-05T18:15:49.056Z,4.53
2022-10-05T18:18:59.665Z,4.38
2022-10-05T18:21:34.984Z,4.93
2022-10-05T18:24:39.001Z,5.68
2022-10-05T18:27:18.593Z,4.95
2022-10-05T18:30:09.645Z,4.65
2022-10-05T18:32:55.781Z,5.00
2022-10-05T18:35:49.032Z,5.63
2022-10-05T18:38:25.966Z,5.88
2022-10-05T18:41:28.399Z,7.15
2022-10-05T18:44:14.469Z,6.45
2022-10-05T18:46:53.572Z,5.78
2022-10-05T18:49:53.111Z,8.02
2022-10-05T18:52:57.254Z,8.20
2022-10-05T18:55:42.284Z,8.25
2022-10-05T18:58:10.946Z,8.50
2022-10-05T19:00:41.884Z,7.47
2022-10-05T19:03:50.493Z,6.65
2022-10-05T19:06:30.486Z,7.40
2022-10-05T19:09:32.367Z,7.25
2022-10-05T19:12:03.360Z,8.80
2022-10-05T19:14:50.608Z,8.98
2022-10-05T19:17:30.168Z,9.13
2022-10-05T19:20:19.050Z,9.15
2022-10-05T19:23:34.051Z,7.32
2022-10-05T19:26:20.273Z,6.47
2022-10-05T19:29:12.450Z,5.38
2022-10-05T19:31:58.244Z,7.47
2022-10-05T19:34:44.509Z,6.78
2022-10-05T19:37:32.710Z,6.15
2022-10-05T19:40:31.284Z,5.20
2022-10-05T19:43:18.545Z,6.72
2022-10-05T19:46:17.689Z,6.75
2022-10-05T19:48:55.174Z,6.90
2022-10-05T19:51:29.450Z,6.55
2022-10-05T19:54:02.990Z,6.45
2022-10-05T19:56:35.185Z,5.88
2022-10-05T19:59:18.511Z,6.22
2022-10-05T20:01:56.139Z,6.07
2022-10-05T20:04:46.211Z,7.68
2022-10-05T20:07:22.176Z,8.80
2022-10-05T20:09:59.915Z,14.15
2022-10-05T20:12:54.934Z,13.57
2022-10-05T20:15:46.362Z,8.23
2022-10-05T20:18:58.075Z,7.43
2022-10-05T20:21:48.266Z,6.40
2022-10-05T20:24:26.436Z,6.30
2022-10-05T20:27:05.735Z,7.28
2022-10-05T20:29:36.121Z,6.90
2022-10-05T20:32:12.261Z,6.72
2022-10-05T20:34:45.696Z,5.88
2022-10-05T20:37:17.690Z,6.90
2022-10-05T20:39:45.936Z,6.88
2022-10-05T20:42:14.651Z,6.25
2022-10-05T20:44:42.847Z,7.00
2022-10-05T20:47:11.420Z,9.77
2022-10-05T20:49:41.665Z,12.30
2022-10-05T20:52:13.595Z,14.20
2022-10-05T20:54:41.913Z,12.95
2022-10-05T20:57:11.050Z,12.40
2022-10-05T20:59:39.998Z,12.20
2022-10-05T21:02:08.042Z,10.45
2022-10-05T21:04:40.589Z,9.60
2022-10-05T21:07:11.318Z,8.05
2022-10-05T21:09:41.648Z,6.80
2022-10-05T21:12:09.572Z,6.60
2022-10-05T21:14:39.521Z,8.02
2022-10-05T21:17:07.718Z,6.68
2022-10-05T21:19:40.090Z,6.88
2022-10-05T21:22:10.223Z,6.88
2022-10-05T21:24:40.366Z,6.63
2022-10-05T21:27:10.122Z,6.80
2022-10-05T21:29:44.400Z,7.03
2022-10-05T21:32:12.249Z,6.75
2022-10-05T21:34:41.831Z,6.28
2022-10-05T21:37:10.926Z,6.55
2022-10-05T21:39:38.896Z,5.97
2022-10-05T21:42:06.864Z,5.28
2022-10-05T21:44:35.021Z,8.38
2022-10-05T21:47:03.067Z,8.27
2022-10-05T21:49:31.747Z,6.78
2022-10-05T21:52:01.691Z,7.45
2022-10-05T21:54:29.732Z,7.00
2022-10-05T21:56:59.437Z,6.95
2022-10-05T22:01:57.010Z,5.57
2022-10-05T22:04:24.981Z,5.00
2022-10-05T22:06:53.986Z,5.47
2022-10-05T22:09:21.952Z,4.80
2022-10-05T22:11:50.155Z,6.13
2022-10-05T22:14:18.401Z,6.50
2022-10-05T22:16:46.475Z,5.95
2022-10-05T22:19:19.595Z,5.70
2022-10-05T22:21:49.482Z,4.57
2022-10-05T22:24:17.473Z,4.88
2022-10-05T22:26:48.857Z,5.55
2022-10-05T22:29:21.357Z,5.57
2022-10-05T22:31:49.984Z,5.07
2022-10-05T22:34:18.914Z,6.20
2022-10-05T22:36:49.660Z,6.05
2022-10-05T22:39:18.408Z,5.90
2022-10-05T22:41:46.402Z,5.77
2022-10-05T22:44:16.223Z,5.65
2022-10-05T22:46:44.469Z,4.43
2022-10-05T22:49:12.399Z,4.10
2022-10-05T22:51:40.624Z,4.45
2022-10-05T22:54:08.631Z,4.97
2022-10-05T22:56:36.559Z,4.90
2022-10-05T22:59:05.476Z,4.70
2022-10-05T23:01:33.459Z,4.90
2022-10-05T23:04:01.457Z,4.57
2022-10-05T23:06:30.885Z,4.40
2022-10-05T23:08:58.877Z,4.68
2022-10-05T23:11:29.362Z,5.00
2022-10-05T23:13:59.513Z,4.75
2022-10-05T23:16:29.203Z,5.45
2022-10-05T23:21:28.005Z,5.20
2022-10-05T23:23:56.714Z,5.05
2022-10-05T23:26:26.747Z,5.40
2022-10-05T23:28:55.938Z,4.63
2022-10-05T23:31:26.973Z,5.20
2022-10-05T23:33:55.191Z,4.00
2022-10-05T23:36:26.995Z,4.05
2022-10-05T23:38:55.606Z,4.30
2022-10-05T23:41:24.428Z,4.90
2022-10-05T23:43:55.682Z,5.05
2022-10-05T23:46:24.023Z,4.93
2022-10-05T23:48:54.000Z,4.68
2022-10-05T23:51:24.413Z,5.15
2022-10-05T23:53:52.456Z,5.03
2022-10-05T23:56:20.659Z,5.25
2022-10-05T23:58:49.019Z,5.18
